Hammond Crossroads, South Carolina
Current Conditions -  °F | °C
As of 2:58 PM on Wednesday 26 Nov 2014 (Local Time) from KMMT Reporting Station
Broken Clouds Broken Clouds  
Wind Chill: 55°   Ceiling: 3600
Heat Index: 55°   Visibility: 10mi
Dew Point: 45°   Wind: 6mph
Humidity: 67%   Direction: 330°NNW
Pressure: 30.01"   Gusts: NA
Location:  33.7122°N, 80.8747°W
Report Text: KMMT 261958Z 33005KT 10SM SCT027 BKN036 BKN049 13/07 A3001 RMK AO2A SLP165
Loading
Personal Weather Stations






























Interactive Weather Map New forecast layout! Learn more

10-Day Weather Forecast

Advertisements
Track Severe Weather on mobile